Pagrindinis puslapis
METAR-TAF:

METAR-TAF

Oro uostai :

Hartsfyldo-Džaksono Atlantos tarptautinis oro uostas

Atlanta, Georgia, Jungtinės Amerikos Valstijos

platuma: 33-38-25N, ilguma: 084-25-37W, Aukštis: 313 m

Dabartinis oras

Ataskaita buvo paskelbta 41 minutes, ne 15:52 UTC
Vėjas 7 kt iš Rytų su gūsio iki 14 kt
Temperatūra 24°C
Drėgmė 41%
Slėgis 1027 hPa
Matomumas: 16.1 km
Giedras dangus

METAR: KATL 201552Z 09007G14KT 10SM CLR 24/10 A3033 RMK AO2 SLP263 T02390100

Laikas: 12:33 (16:33 UTC)

Prognozė

Ataskaita buvo paskelbta 1 valandą ir 3 minutes, ne 15:30 UTC
Prognozė galioja nuo 20 metu 16 UTC su 21 metu 18 UTC
Vėjas 9 kt iš Rytų
Matomumas: 10 km
Mažai debesys ne aukštis 25000 ft
Nuo 21 metu 0000 UTC
Vėjas 4 kt iš Rytų
Matomumas: 10 km
Išsisklaidę debesys ne aukštis 25000 ft

TAF: KATL 201530Z 2016/2118 09009KT P6SM FEW250 FM210000 10004KT P6SM SCT250

Orai ataskaitas ir orų prognozės (METAR, TAF).

turimą stotys yra geltonos ir raudonos taškus žemėlapyje.

Perkelti pele per norėdami pamatyti stoties vardą.

Tada spustelėkite, norėdami matyti oro stebėjimo ir prognozės.

Norėdami pakeisti žemėlapį: spustelėkite ant žalios mygtukų su juodo kryžiaus žemyn,; žalią mygtuką su brūkšneliu, jei norite nutolinti; arba žalių rodyklių gretimoms žemėlapius.


METAR-TAF: